sensor_id;sensor_type;location;lat;lon;timestamp;temperature;humidity
20985;DHT22;10651;47.552;7.606;2024-03-29T07:02:53;11.30;99.90
20985;DHT22;10651;47.552;7.606;2024-03-29T07:05:19;11.30;99.70
20985;DHT22;10651;47.552;7.606;2024-03-29T07:07:45;11.30;99.70
20985;DHT22;10651;47.552;7.606;2024-03-29T07:10:12;11.30;99.80
20985;DHT22;10651;47.552;7.606;2024-03-29T07:12:38;11.40;99.90
20985;DHT22;10651;47.552;7.606;2024-03-29T07:15:04;11.40;99.90
20985;DHT22;10651;47.552;7.606;2024-03-29T07:17:30;11.40;99.90
20985;DHT22;10651;47.552;7.606;2024-03-29T07:19:56;11.50;99.90
20985;DHT22;10651;47.552;7.606;2024-03-29T07:22:22;11.50;99.90
20985;DHT22;10651;47.552;7.606;2024-03-29T07:24:47;11.50;99.90
20985;DHT22;10651;47.552;7.606;2024-03-29T07:27:13;11.60;99.90
20985;DHT22;10651;47.552;7.606;2024-03-29T07:29:42;11.50;99.70
20985;DHT22;10651;47.552;7.606;2024-03-29T07:32:09;11.40;99.80
20985;DHT22;10651;47.552;7.606;2024-03-29T07:34:35;11.30;99.90
20985;DHT22;10651;47.552;7.606;2024-03-29T07:37:01;11.30;99.90
20985;DHT22;10651;47.552;7.606;2024-03-29T07:39:26;11.30;99.90
20985;DHT22;10651;47.552;7.606;2024-03-29T07:41:52;11.20;99.90
20985;DHT22;10651;47.552;7.606;2024-03-29T07:44:18;11.20;99.90
20985;DHT22;10651;47.552;7.606;2024-03-29T07:46:44;11.20;99.90
20985;DHT22;10651;47.552;7.606;2024-03-29T07:49:12;11.20;99.90
20985;DHT22;10651;47.552;7.606;2024-03-29T07:51:38;11.20;99.90
20985;DHT22;10651;47.552;7.606;2024-03-29T07:54:04;11.10;99.90
20985;DHT22;10651;47.552;7.606;2024-03-29T07:56:30;11.20;99.90
20985;DHT22;10651;47.552;7.606;2024-03-29T07:58:56;11.10;99.90
20985;DHT22;10651;47.552;7.606;2024-03-29T08:01:23;11.30;99.90
20985;DHT22;10651;47.552;7.606;2024-03-29T08:03:53;11.50;99.90
20985;DHT22;10651;47.552;7.606;2024-03-29T08:06:22;11.50;99.90
20985;DHT22;10651;47.552;7.606;2024-03-29T08:08:49;11.60;99.90
20985;DHT22;10651;47.552;7.606;2024-03-29T08:11:16;11.60;99.90
20985;DHT22;10651;47.552;7.606;2024-03-29T08:13:42;11.60;99.90
20985;DHT22;10651;47.552;7.606;2024-03-29T08:16:07;11.60;99.90
20985;DHT22;10651;47.552;7.606;2024-03-29T08:18:33;11.60;99.90
20985;DHT22;10651;47.552;7.606;2024-03-29T08:20:59;11.80;99.90
20985;DHT22;10651;47.552;7.606;2024-03-29T08:23:25;12.10;99.90
20985;DHT22;10651;47.552;7.606;2024-03-29T08:25:51;12.50;99.90
20985;DHT22;10651;47.552;7.606;2024-03-29T08:28:24;12.40;99.90
20985;DHT22;10651;47.552;7.606;2024-03-29T08:31:05;12.30;99.90
20985;DHT22;10651;47.552;7.606;2024-03-29T08:33:32;12.20;99.90
20985;DHT22;10651;47.552;7.606;2024-03-29T08:35:57;12.10;99.90
20985;DHT22;10651;47.552;7.606;2024-03-29T08:38:23;12.00;99.90
20985;DHT22;10651;47.552;7.606;2024-03-29T08:40:49;12.00;99.90
20985;DHT22;10651;47.552;7.606;2024-03-29T08:43:16;12.00;99.90
20985;DHT22;10651;47.552;7.606;2024-03-29T08:45:44;12.10;99.90
20985;DHT22;10651;47.552;7.606;2024-03-29T08:48:09;12.00;99.90
20985;DHT22;10651;47.552;7.606;2024-03-29T08:50:36;11.90;99.90
20985;DHT22;10651;47.552;7.606;2024-03-29T08:53:02;11.90;99.90
20985;DHT22;10651;47.552;7.606;2024-03-29T08:55:32;11.90;99.90
20985;DHT22;10651;47.552;7.606;2024-03-29T08:57:59;11.90;99.90
20985;DHT22;10651;47.552;7.606;2024-03-29T09:00:53;12.00;99.90
20985;DHT22;10651;47.552;7.606;2024-03-29T09:03:21;12.10;99.90
20985;DHT22;10651;47.552;7.606;2024-03-29T09:05:47;12.20;99.90
20985;DHT22;10651;47.552;7.606;2024-03-29T09:08:13;12.30;99.90
20985;DHT22;10651;47.552;7.606;2024-03-29T09:10:38;12.30;99.90
20985;DHT22;10651;47.552;7.606;2024-03-29T09:13:04;12.40;99.90
20985;DHT22;10651;47.552;7.606;2024-03-29T09:15:32;12.40;99.90
20985;DHT22;10651;47.552;7.606;2024-03-29T09:17:58;12.50;99.90
20985;DHT22;10651;47.552;7.606;2024-03-29T09:20:28;12.50;99.90
20985;DHT22;10651;47.552;7.606;2024-03-29T09:22:54;12.60;99.90
20985;DHT22;10651;47.552;7.606;2024-03-29T09:25:19;12.50;99.90
20985;DHT22;10651;47.552;7.606;2024-03-29T09:27:45;12.40;99.90
20985;DHT22;10651;47.552;7.606;2024-03-29T09:30:22;12.40;99.90
20985;DHT22;10651;47.552;7.606;2024-03-29T09:33:02;12.40;99.90
20985;DHT22;10651;47.552;7.606;2024-03-29T09:35:32;12.60;99.90
20985;DHT22;10651;47.552;7.606;2024-03-29T09:37:57;12.60;99.90
20985;DHT22;10651;47.552;7.606;2024-03-29T09:40:25;12.60;99.90
20985;DHT22;10651;47.552;7.606;2024-03-29T09:42:51;12.60;99.90
20985;DHT22;10651;47.552;7.606;2024-03-29T09:45:19;12.60;99.90
20985;DHT22;10651;47.552;7.606;2024-03-29T09:47:46;12.70;99.90
20985;DHT22;10651;47.552;7.606;2024-03-29T09:50:12;12.80;99.90
20985;DHT22;10651;47.552;7.606;2024-03-29T09:52:39;12.80;99.90
20985;DHT22;10651;47.552;7.606;2024-03-29T09:55:06;12.70;99.90
20985;DHT22;10651;47.552;7.606;2024-03-29T09:57:32;12.60;99.90
20985;DHT22;10651;47.552;7.606;2024-03-29T09:59:58;12.70;99.90
20985;DHT22;10651;47.552;7.606;2024-03-29T10:02:29;12.70;99.90
20985;DHT22;10651;47.552;7.606;2024-03-29T10:04:57;12.80;99.90
20985;DHT22;10651;47.552;7.606;2024-03-29T10:07:24;12.80;99.90
20985;DHT22;10651;47.552;7.606;2024-03-29T10:09:51;12.90;99.90
20985;DHT22;10651;47.552;7.606;2024-03-29T10:12:17;12.90;99.90
20985;DHT22;10651;47.552;7.606;2024-03-29T10:14:48;13.00;99.90
20985;DHT22;10651;47.552;7.606;2024-03-29T10:17:47;13.00;99.90
20985;DHT22;10651;47.552;7.606;2024-03-29T10:20:18;13.10;99.90
20985;DHT22;10651;47.552;7.606;2024-03-29T10:22:45;13.20;99.90
20985;DHT22;10651;47.552;7.606;2024-03-29T10:25:14;13.50;99.90
20985;DHT22;10651;47.552;7.606;2024-03-29T10:27:41;13.80;99.90
20985;DHT22;10651;47.552;7.606;2024-03-29T10:30:08;13.90;99.90
20985;DHT22;10651;47.552;7.606;2024-03-29T10:32:40;14.10;99.90
20985;DHT22;10651;47.552;7.606;2024-03-29T10:35:06;14.30;99.90
20985;DHT22;10651;47.552;7.606;2024-03-29T10:37:32;14.50;99.70
20985;DHT22;10651;47.552;7.606;2024-03-29T10:40:08;14.70;99.00
20985;DHT22;10651;47.552;7.606;2024-03-29T10:42:36;15.10;99.90
20985;DHT22;10651;47.552;7.606;2024-03-29T10:45:02;15.20;98.80
20985;DHT22;10651;47.552;7.606;2024-03-29T10:47:30;14.90;98.40
20985;DHT22;10651;47.552;7.606;2024-03-29T10:49:58;15.00;99.30
20985;DHT22;10651;47.552;7.606;2024-03-29T10:52:27;14.90;99.10
20985;DHT22;10651;47.552;7.606;2024-03-29T10:54:53;14.60;99.90
20985;DHT22;10651;47.552;7.606;2024-03-29T10:57:25;14.40;99.90
20985;DHT22;10651;47.552;7.606;2024-03-29T11:05:02;14.10;99.90
20985;DHT22;10651;47.552;7.606;2024-03-29T11:07:34;14.30;99.90
20985;DHT22;10651;47.552;7.606;2024-03-29T11:10:04;14.90;99.90
20985;DHT22;10651;47.552;7.606;2024-03-29T11:12:35;15.50;99.90
20985;DHT22;10651;47.552;7.606;2024-03-29T11:15:05;16.10;97.90
20985;DHT22;10651;47.552;7.606;2024-03-29T11:17:33;16.80;96.60
20985;DHT22;10651;47.552;7.606;2024-03-29T11:19:59;17.30;97.70
20985;DHT22;10651;47.552;7.606;2024-03-29T11:22:26;18.00;95.70
20985;DHT22;10651;47.552;7.606;2024-03-29T11:24:53;18.40;94.80
20985;DHT22;10651;47.552;7.606;2024-03-29T11:27:23;18.50;95.70
20985;DHT22;10651;47.552;7.606;2024-03-29T11:29:49;18.60;94.20
20985;DHT22;10651;47.552;7.606;2024-03-29T11:32:34;18.90;94.90
20985;DHT22;10651;47.552;7.606;2024-03-29T11:34:59;18.70;94.30
20985;DHT22;10651;47.552;7.606;2024-03-29T11:37:30;19.10;94.70
20985;DHT22;10651;47.552;7.606;2024-03-29T11:39:59;19.30;94.30
20985;DHT22;10651;47.552;7.606;2024-03-29T11:42:43;19.80;93.90
20985;DHT22;10651;47.552;7.606;2024-03-29T11:45:09;19.90;92.60
20985;DHT22;10651;47.552;7.606;2024-03-29T11:47:37;19.70;90.90
20985;DHT22;10651;47.552;7.606;2024-03-29T11:50:05;20.10;91.20
20985;DHT22;10651;47.552;7.606;2024-03-29T11:52:31;21.00;92.10
20985;DHT22;10651;47.552;7.606;2024-03-29T11:54:57;21.60;90.90
20985;DHT22;10651;47.552;7.606;2024-03-29T11:57:24;22.70;88.80
20985;DHT22;10651;47.552;7.606;2024-03-29T11:59:49;23.20;86.50
20985;DHT22;10651;47.552;7.606;2024-03-29T12:02:15;24.50;84.70
20985;DHT22;10651;47.552;7.606;2024-03-29T12:04:41;25.10;80.40
20985;DHT22;10651;47.552;7.606;2024-03-29T12:07:07;26.10;80.40
20985;DHT22;10651;47.552;7.606;2024-03-29T12:09:33;27.90;76.80
20985;DHT22;10651;47.552;7.606;2024-03-29T12:11:59;28.50;71.40
20985;DHT22;10651;47.552;7.606;2024-03-29T12:14:31;27.80;67.90
20985;DHT22;10651;47.552;7.606;2024-03-29T12:17:01;28.50;68.00
20985;DHT22;10651;47.552;7.606;2024-03-29T12:19:27;30.30;68.50
20985;DHT22;10651;47.552;7.606;2024-03-29T12:21:54;32.00;66.20
20985;DHT22;10651;47.552;7.606;2024-03-29T12:24:20;33.40;60.00
20985;DHT22;10651;47.552;7.606;2024-03-29T12:26:48;34.20;58.10
20985;DHT22;10651;47.552;7.606;2024-03-29T12:29:15;34.90;56.20
20985;DHT22;10651;47.552;7.606;2024-03-29T12:31:41;35.30;55.90
20985;DHT22;10651;47.552;7.606;2024-03-29T12:34:07;35.90;54.90
20985;DHT22;10651;47.552;7.606;2024-03-29T12:36:38;35.10;53.60
20985;DHT22;10651;47.552;7.606;2024-03-29T12:39:04;37.00;54.80
20985;DHT22;10651;47.552;7.606;2024-03-29T12:41:31;38.30;53.30
20985;DHT22;10651;47.552;7.606;2024-03-29T12:43:58;37.80;54.10
20985;DHT22;10651;47.552;7.606;2024-03-29T12:46:24;38.50;52.70
20985;DHT22;10651;47.552;7.606;2024-03-29T12:49:00;38.90;50.70
20985;DHT22;10651;47.552;7.606;2024-03-29T12:51:27;38.90;50.30
20985;DHT22;10651;47.552;7.606;2024-03-29T12:53:54;38.90;49.90
20985;DHT22;10651;47.552;7.606;2024-03-29T12:56:21;38.50;50.20
20985;DHT22;10651;47.552;7.606;2024-03-29T12:58:46;39.50;51.30
20985;DHT22;10651;47.552;7.606;2024-03-29T13:01:12;39.60;50.20
20985;DHT22;10651;47.552;7.606;2024-03-29T13:03:38;39.10;50.00
20985;DHT22;10651;47.552;7.606;2024-03-29T13:06:06;38.40;50.70
20985;DHT22;10651;47.552;7.606;2024-03-29T13:08:32;38.10;50.30
20985;DHT22;10651;47.552;7.606;2024-03-29T13:10:57;38.40;49.50
20985;DHT22;10651;47.552;7.606;2024-03-29T13:13:23;38.60;50.20
20985;DHT22;10651;47.552;7.606;2024-03-29T13:15:49;38.80;48.60
20985;DHT22;10651;47.552;7.606;2024-03-29T13:18:16;39.00;49.40
20985;DHT22;10651;47.552;7.606;2024-03-29T13:20:43;39.50;49.30
20985;DHT22;10651;47.552;7.606;2024-03-29T13:23:09;39.10;48.50
20985;DHT22;10651;47.552;7.606;2024-03-29T13:25:36;39.90;48.20
20985;DHT22;10651;47.552;7.606;2024-03-29T13:28:01;39.50;47.70
20985;DHT22;10651;47.552;7.606;2024-03-29T13:30:28;38.30;47.20
20985;DHT22;10651;47.552;7.606;2024-03-29T13:32:54;37.60;48.60
20985;DHT22;10651;47.552;7.606;2024-03-29T13:35:20;38.10;50.00
20985;DHT22;10651;47.552;7.606;2024-03-29T13:37:48;38.10;48.40
20985;DHT22;10651;47.552;7.606;2024-03-29T13:40:15;37.50;47.60
20985;DHT22;10651;47.552;7.606;2024-03-29T13:42:41;36.70;48.60
20985;DHT22;10651;47.552;7.606;2024-03-29T13:45:08;37.50;50.30
20985;DHT22;10651;47.552;7.606;2024-03-29T13:47:40;37.70;49.20
20985;DHT22;10651;47.552;7.606;2024-03-29T13:50:09;36.50;49.20
20985;DHT22;10651;47.552;7.606;2024-03-29T13:52:36;35.80;50.50
20985;DHT22;10651;47.552;7.606;2024-03-29T13:55:02;35.80;50.90
20985;DHT22;10651;47.552;7.606;2024-03-29T13:57:29;35.00;53.50
20985;DHT22;10651;47.552;7.606;2024-03-29T13:59:56;34.10;53.30
20985;DHT22;10651;47.552;7.606;2024-03-29T14:02:21;34.70;54.10
20985;DHT22;10651;47.552;7.606;2024-03-29T14:04:49;34.20;54.00
20985;DHT22;10651;47.552;7.606;2024-03-29T14:07:15;32.10;54.20
20985;DHT22;10651;47.552;7.606;2024-03-29T14:09:46;31.50;57.50
20985;DHT22;10651;47.552;7.606;2024-03-29T14:12:13;30.80;57.30
20985;DHT22;10651;47.552;7.606;2024-03-29T14:14:40;29.80;59.10
20985;DHT22;10651;47.552;7.606;2024-03-29T14:17:07;29.90;58.10
20985;DHT22;10651;47.552;7.606;2024-03-29T14:19:34;29.30;57.10
20985;DHT22;10651;47.552;7.606;2024-03-29T14:22:01;29.20;57.00
20985;DHT22;10651;47.552;7.606;2024-03-29T14:24:27;28.50;57.60
20985;DHT22;10651;47.552;7.606;2024-03-29T14:26:53;27.80;58.70
20985;DHT22;10651;47.552;7.606;2024-03-29T14:29:19;27.10;58.60
20985;DHT22;10651;47.552;7.606;2024-03-29T14:31:48;26.40;59.30
20985;DHT22;10651;47.552;7.606;2024-03-29T14:34:15;26.10;61.20
20985;DHT22;10651;47.552;7.606;2024-03-29T14:36:40;25.60;61.90
20985;DHT22;10651;47.552;7.606;2024-03-29T14:39:06;25.10;63.20
20985;DHT22;10651;47.552;7.606;2024-03-29T14:41:32;24.80;64.50
20985;DHT22;10651;47.552;7.606;2024-03-29T14:44:01;24.60;65.40
20985;DHT22;10651;47.552;7.606;2024-03-29T14:46:26;24.30;66.60
20985;DHT22;10651;47.552;7.606;2024-03-29T14:48:52;24.00;67.40
20985;DHT22;10651;47.552;7.606;2024-03-29T14:51:18;23.60;68.10
20985;DHT22;10651;47.552;7.606;2024-03-29T14:53:46;23.50;69.20
20985;DHT22;10651;47.552;7.606;2024-03-29T14:56:18;23.20;69.30
20985;DHT22;10651;47.552;7.606;2024-03-29T14:58:44;23.10;68.70
20985;DHT22;10651;47.552;7.606;2024-03-29T15:01:10;23.00;70.50
20985;DHT22;10651;47.552;7.606;2024-03-29T15:03:36;22.80;70.30
20985;DHT22;10651;47.552;7.606;2024-03-29T15:06:02;22.60;72.60
20985;DHT22;10651;47.552;7.606;2024-03-29T15:08:28;22.30;73.40
20985;DHT22;10651;47.552;7.606;2024-03-29T15:11:01;22.20;74.70
20985;DHT22;10651;47.552;7.606;2024-03-29T15:13:27;22.10;76.40
20985;DHT22;10651;47.552;7.606;2024-03-29T15:15:58;22.00;77.00
20985;DHT22;10651;47.552;7.606;2024-03-29T15:18:24;21.80;79.00
20985;DHT22;10651;47.552;7.606;2024-03-29T15:21:00;21.60;79.20
20985;DHT22;10651;47.552;7.606;2024-03-29T15:23:27;21.50;81.10
20985;DHT22;10651;47.552;7.606;2024-03-29T15:25:55;21.50;81.60
20985;DHT22;10651;47.552;7.606;2024-03-29T15:28:22;21.50;82.20
20985;DHT22;10651;47.552;7.606;2024-03-29T15:31:09;21.50;83.30
20985;DHT22;10651;47.552;7.606;2024-03-29T15:33:35;21.50;83.10
20985;DHT22;10651;47.552;7.606;2024-03-29T15:36:01;21.30;83.50
20985;DHT22;10651;47.552;7.606;2024-03-29T15:38:27;21.30;84.60
20985;DHT22;10651;47.552;7.606;2024-03-29T15:40:55;21.10;84.30
20985;DHT22;10651;47.552;7.606;2024-03-29T15:43:21;21.00;84.20
20985;DHT22;10651;47.552;7.606;2024-03-29T15:45:47;20.90;84.30
20985;DHT22;10651;47.552;7.606;2024-03-29T15:48:12;20.70;85.00
20985;DHT22;10651;47.552;7.606;2024-03-29T15:50:38;20.50;85.30
20985;DHT22;10651;47.552;7.606;2024-03-29T15:53:04;20.40;86.20
20985;DHT22;10651;47.552;7.606;2024-03-29T15:55:33;20.40;86.00
20985;DHT22;10651;47.552;7.606;2024-03-29T15:57:59;20.40;87.00
20985;DHT22;10651;47.552;7.606;2024-03-29T16:00:24;20.30;88.10
20985;DHT22;10651;47.552;7.606;2024-03-29T16:02:52;20.10;88.30
20985;DHT22;10651;47.552;7.606;2024-03-29T16:05:18;20.10;89.90
20985;DHT22;10651;47.552;7.606;2024-03-29T16:07:47;20.10;90.10
20985;DHT22;10651;47.552;7.606;2024-03-29T16:10:12;20.10;89.40
20985;DHT22;10651;47.552;7.606;2024-03-29T16:12:38;20.00;90.70
20985;DHT22;10651;47.552;7.606;2024-03-29T16:15:04;20.00;90.70
20985;DHT22;10651;47.552;7.606;2024-03-29T16:17:30;20.00;91.00
20985;DHT22;10651;47.552;7.606;2024-03-29T16:19:56;20.10;90.50
20985;DHT22;10651;47.552;7.606;2024-03-29T16:22:21;20.00;91.10
20985;DHT22;10651;47.552;7.606;2024-03-29T16:24:47;19.90;91.10
20985;DHT22;10651;47.552;7.606;2024-03-29T16:27:13;19.90;91.60
20985;DHT22;10651;47.552;7.606;2024-03-29T16:29:38;19.90;91.50
20985;DHT22;10651;47.552;7.606;2024-03-29T16:32:04;19.70;91.70
20985;DHT22;10651;47.552;7.606;2024-03-29T16:34:30;19.50;92.50
20985;DHT22;10651;47.552;7.606;2024-03-29T16:36:56;19.50;92.30
20985;DHT22;10651;47.552;7.606;2024-03-29T16:39:21;19.50;92.50
20985;DHT22;10651;47.552;7.606;2024-03-29T16:41:47;19.40;92.50
20985;DHT22;10651;47.552;7.606;2024-03-29T16:44:15;19.40;93.00
20985;DHT22;10651;47.552;7.606;2024-03-29T16:46:40;19.30;93.10
20985;DHT22;10651;47.552;7.606;2024-03-29T16:49:06;19.30;92.90
20985;DHT22;10651;47.552;7.606;2024-03-29T16:51:32;19.20;93.00
20985;DHT22;10651;47.552;7.606;2024-03-29T16:53:58;19.30;93.30
20985;DHT22;10651;47.552;7.606;2024-03-29T16:56:24;19.20;93.50
20985;DHT22;10651;47.552;7.606;2024-03-29T16:58:49;19.10;93.80
20985;DHT22;10651;47.552;7.606;2024-03-29T17:01:15;19.10;94.40
20985;DHT22;10651;47.552;7.606;2024-03-29T17:03:41;19.00;95.00
20985;DHT22;10651;47.552;7.606;2024-03-29T17:06:06;19.00;94.40
20985;DHT22;10651;47.552;7.606;2024-03-29T17:08:32;18.90;94.70
20985;DHT22;10651;47.552;7.606;2024-03-29T17:10:58;18.90;95.10
20985;DHT22;10651;47.552;7.606;2024-03-29T17:13:24;18.80;95.40
20985;DHT22;10651;47.552;7.606;2024-03-29T17:15:49;18.70;96.10
20985;DHT22;10651;47.552;7.606;2024-03-29T17:18:15;18.70;97.80
20985;DHT22;10651;47.552;7.606;2024-03-29T17:20:41;18.60;97.90
20985;DHT22;10651;47.552;7.606;2024-03-29T17:23:07;18.40;98.30
20985;DHT22;10651;47.552;7.606;2024-03-29T17:25:32;18.40;97.50
20985;DHT22;10651;47.552;7.606;2024-03-29T17:27:58;18.30;97.90
20985;DHT22;10651;47.552;7.606;2024-03-29T17:30:24;18.20;98.00
20985;DHT22;10651;47.552;7.606;2024-03-29T17:32:49;18.10;98.40
20985;DHT22;10651;47.552;7.606;2024-03-29T17:35:15;18.20;99.30
20985;DHT22;10651;47.552;7.606;2024-03-29T17:37:41;18.20;99.30
20985;DHT22;10651;47.552;7.606;2024-03-29T17:40:07;18.10;99.60
20985;DHT22;10651;47.552;7.606;2024-03-29T17:42:33;17.90;99.90
20985;DHT22;10651;47.552;7.606;2024-03-29T17:44:59;17.80;99.90
20985;DHT22;10651;47.552;7.606;2024-03-29T17:47:25;17.70;99.90
20985;DHT22;10651;47.552;7.606;2024-03-29T17:49:51;17.70;99.90
20985;DHT22;10651;47.552;7.606;2024-03-29T17:52:17;17.60;99.90
20985;DHT22;10651;47.552;7.606;2024-03-29T17:54:43;17.60;99.90
20985;DHT22;10651;47.552;7.606;2024-03-29T17:57:08;17.40;99.90
20985;DHT22;10651;47.552;7.606;2024-03-29T17:59:34;17.40;99.90
20985;DHT22;10651;47.552;7.606;2024-03-29T18:02:00;17.40;99.90
20985;DHT22;10651;47.552;7.606;2024-03-29T18:04:25;17.30;99.90
20985;DHT22;10651;47.552;7.606;2024-03-29T18:06:51;17.40;99.90
20985;DHT22;10651;47.552;7.606;2024-03-29T18:09:17;17.30;99.90
20985;DHT22;10651;47.552;7.606;2024-03-29T18:11:42;17.20;99.90
20985;DHT22;10651;47.552;7.606;2024-03-29T18:14:08;17.20;99.90
20985;DHT22;10651;47.552;7.606;2024-03-29T18:16:34;17.10;99.90
20985;DHT22;10651;47.552;7.606;2024-03-29T18:19:00;17.10;99.90
20985;DHT22;10651;47.552;7.606;2024-03-29T18:21:25;17.10;99.90
20985;DHT22;10651;47.552;7.606;2024-03-29T18:23:51;17.10;99.90
20985;DHT22;10651;47.552;7.606;2024-03-29T18:26:17;17.00;99.90
20985;DHT22;10651;47.552;7.606;2024-03-29T18:28:42;17.00;99.90
20985;DHT22;10651;47.552;7.606;2024-03-29T18:31:08;17.00;99.90
20985;DHT22;10651;47.552;7.606;2024-03-29T18:33:37;16.80;99.90
20985;DHT22;10651;47.552;7.606;2024-03-29T18:36:04;16.90;99.90
20985;DHT22;10651;47.552;7.606;2024-03-29T18:38:30;16.90;99.90
20985;DHT22;10651;47.552;7.606;2024-03-29T18:41:07;16.80;99.90
20985;DHT22;10651;47.552;7.606;2024-03-29T18:43:32;16.80;99.90
20985;DHT22;10651;47.552;7.606;2024-03-29T18:46:05;16.80;99.90
20985;DHT22;10651;47.552;7.606;2024-03-29T18:48:32;16.70;99.90
20985;DHT22;10651;47.552;7.606;2024-03-29T18:50:58;16.60;99.90
20985;DHT22;10651;47.552;7.606;2024-03-29T18:53:27;16.50;99.90
20985;DHT22;10651;47.552;7.606;2024-03-29T18:55:59;16.40;99.90
20985;DHT22;10651;47.552;7.606;2024-03-29T18:58:35;16.40;99.90
20985;DHT22;10651;47.552;7.606;2024-03-29T19:01:00;16.30;99.90
20985;DHT22;10651;47.552;7.606;2024-03-29T19:03:26;16.20;99.90
20985;DHT22;10651;47.552;7.606;2024-03-29T19:05:53;16.10;99.90
20985;DHT22;10651;47.552;7.606;2024-03-29T19:08:20;16.20;99.90
20985;DHT22;10651;47.552;7.606;2024-03-29T19:10:47;16.20;99.90
20985;DHT22;10651;47.552;7.606;2024-03-29T19:13:13;16.20;99.90
20985;DHT22;10651;47.552;7.606;2024-03-29T19:15:39;16.20;99.90
20985;DHT22;10651;47.552;7.606;2024-03-29T19:18:05;16.10;99.90
20985;DHT22;10651;47.552;7.606;2024-03-29T19:20:31;16.10;99.90
20985;DHT22;10651;47.552;7.606;2024-03-29T19:22:57;16.10;99.90
20985;DHT22;10651;47.552;7.606;2024-03-29T19:25:23;16.10;99.90
20985;DHT22;10651;47.552;7.606;2024-03-29T19:27:49;16.00;99.90
20985;DHT22;10651;47.552;7.606;2024-03-29T19:30:16;16.00;99.90
20985;DHT22;10651;47.552;7.606;2024-03-29T19:32:42;16.00;99.90
20985;DHT22;10651;47.552;7.606;2024-03-29T19:35:08;15.90;99.90
20985;DHT22;10651;47.552;7.606;2024-03-29T19:37:34;15.90;99.90
20985;DHT22;10651;47.552;7.606;2024-03-29T19:40:02;15.80;99.90
20985;DHT22;10651;47.552;7.606;2024-03-29T19:42:28;15.70;99.90
20985;DHT22;10651;47.552;7.606;2024-03-29T19:44:54;15.70;99.90
20985;DHT22;10651;47.552;7.606;2024-03-29T19:47:19;15.60;99.90
20985;DHT22;10651;47.552;7.606;2024-03-29T19:49:48;15.60;99.90
20985;DHT22;10651;47.552;7.606;2024-03-29T19:52:14;15.60;99.90
20985;DHT22;10651;47.552;7.606;2024-03-29T19:54:39;15.50;99.90
20985;DHT22;10651;47.552;7.606;2024-03-29T19:57:05;15.40;99.90
20985;DHT22;10651;47.552;7.606;2024-03-29T19:59:31;15.50;99.90
20985;DHT22;10651;47.552;7.606;2024-03-29T20:01:57;15.40;99.90
20985;DHT22;10651;47.552;7.606;2024-03-29T20:04:23;15.40;99.90
20985;DHT22;10651;47.552;7.606;2024-03-29T20:06:48;15.40;99.90
20985;DHT22;10651;47.552;7.606;2024-03-29T20:09:14;15.40;99.90
20985;DHT22;10651;47.552;7.606;2024-03-29T20:11:40;15.30;99.90
20985;DHT22;10651;47.552;7.606;2024-03-29T20:14:06;15.30;99.90
20985;DHT22;10651;47.552;7.606;2024-03-29T20:16:32;15.40;99.90
20985;DHT22;10651;47.552;7.606;2024-03-29T20:18:57;15.30;99.90
20985;DHT22;10651;47.552;7.606;2024-03-29T20:21:27;15.20;99.90
20985;DHT22;10651;47.552;7.606;2024-03-29T20:23:53;15.10;99.90
20985;DHT22;10651;47.552;7.606;2024-03-29T20:26:18;15.20;99.90
20985;DHT22;10651;47.552;7.606;2024-03-29T20:28:44;15.20;99.90
20985;DHT22;10651;47.552;7.606;2024-03-29T20:31:10;14.90;99.90
20985;DHT22;10651;47.552;7.606;2024-03-29T20:33:35;15.00;99.90
20985;DHT22;10651;47.552;7.606;2024-03-29T20:36:05;15.00;99.90
20985;DHT22;10651;47.552;7.606;2024-03-29T20:38:31;15.00;99.90
20985;DHT22;10651;47.552;7.606;2024-03-29T20:40:56;14.80;99.90
20985;DHT22;10651;47.552;7.606;2024-03-29T20:43:22;14.70;99.90
20985;DHT22;10651;47.552;7.606;2024-03-29T20:45:48;14.70;99.90
20985;DHT22;10651;47.552;7.606;2024-03-29T20:48:18;14.70;99.90
20985;DHT22;10651;47.552;7.606;2024-03-29T20:50:44;14.60;99.90
20985;DHT22;10651;47.552;7.606;2024-03-29T20:53:10;14.50;99.90
20985;DHT22;10651;47.552;7.606;2024-03-29T20:55:36;14.50;99.90
20985;DHT22;10651;47.552;7.606;2024-03-29T20:58:01;14.50;99.90
20985;DHT22;10651;47.552;7.606;2024-03-29T21:00:27;14.40;99.90
20985;DHT22;10651;47.552;7.606;2024-03-29T21:02:53;14.40;99.90
20985;DHT22;10651;47.552;7.606;2024-03-29T21:05:37;14.50;99.90
20985;DHT22;10651;47.552;7.606;2024-03-29T21:08:07;14.60;99.90
20985;DHT22;10651;47.552;7.606;2024-03-29T21:10:33;14.40;99.90
20985;DHT22;10651;47.552;7.606;2024-03-29T21:12:59;14.40;99.90
20985;DHT22;10651;47.552;7.606;2024-03-29T21:15:27;14.40;99.90
20985;DHT22;10651;47.552;7.606;2024-03-29T21:17:55;14.30;99.90
20985;DHT22;10651;47.552;7.606;2024-03-29T21:20:25;14.30;99.90
20985;DHT22;10651;47.552;7.606;2024-03-29T21:22:51;14.30;99.90
20985;DHT22;10651;47.552;7.606;2024-03-29T21:25:17;14.20;99.90
20985;DHT22;10651;47.552;7.606;2024-03-29T21:27:43;14.20;99.90
20985;DHT22;10651;47.552;7.606;2024-03-29T21:30:10;14.20;99.90
20985;DHT22;10651;47.552;7.606;2024-03-29T21:32:40;14.10;99.90
20985;DHT22;10651;47.552;7.606;2024-03-29T21:35:07;14.20;99.90
20985;DHT22;10651;47.552;7.606;2024-03-29T21:37:33;14.20;99.90
20985;DHT22;10651;47.552;7.606;2024-03-29T21:40:00;14.20;99.90
20985;DHT22;10651;47.552;7.606;2024-03-29T21:42:25;14.10;99.90
20985;DHT22;10651;47.552;7.606;2024-03-29T21:44:51;14.10;99.90
20985;DHT22;10651;47.552;7.606;2024-03-29T21:47:17;14.10;99.90
20985;DHT22;10651;47.552;7.606;2024-03-29T21:49:46;14.00;99.90
20985;DHT22;10651;47.552;7.606;2024-03-29T21:52:13;14.00;99.90
20985;DHT22;10651;47.552;7.606;2024-03-29T21:54:40;14.00;99.90
20985;DHT22;10651;47.552;7.606;2024-03-29T21:57:06;13.90;99.90
20985;DHT22;10651;47.552;7.606;2024-03-29T21:59:34;13.90;99.90
20985;DHT22;10651;47.552;7.606;2024-03-29T22:02:00;13.90;99.90
20985;DHT22;10651;47.552;7.606;2024-03-29T22:04:26;13.90;99.90
20985;DHT22;10651;47.552;7.606;2024-03-29T22:06:51;13.80;99.90
20985;DHT22;10651;47.552;7.606;2024-03-29T22:09:17;13.80;99.90
20985;DHT22;10651;47.552;7.606;2024-03-29T22:11:43;13.80;99.90
20985;DHT22;10651;47.552;7.606;2024-03-29T22:14:08;13.70;99.90
20985;DHT22;10651;47.552;7.606;2024-03-29T22:16:34;13.70;99.90
20985;DHT22;10651;47.552;7.606;2024-03-29T22:19:00;13.70;99.90
20985;DHT22;10651;47.552;7.606;2024-03-29T22:21:25;13.70;99.90
20985;DHT22;10651;47.552;7.606;2024-03-29T22:23:52;13.60;99.90
20985;DHT22;10651;47.552;7.606;2024-03-29T22:26:17;13.60;99.90
20985;DHT22;10651;47.552;7.606;2024-03-29T22:28:43;13.50;99.90
20985;DHT22;10651;47.552;7.606;2024-03-29T22:31:09;13.50;99.90
20985;DHT22;10651;47.552;7.606;2024-03-29T22:33:35;13.40;99.90
20985;DHT22;10651;47.552;7.606;2024-03-29T22:36:01;13.40;99.90